KFEP/FEP METAR and TAF weather

Enter ICAO airport designator
Station Type Date Time Source
KFEP METAR 2019/08/18 08:55 UTC NOAA

KFEP 180855Z AUTO 13003KT 7SM CLR 19/19 A2982 RMK AO2 P0001 60001 T01890189


Station Type Date Time Source
KFEP Decoded METAR 2019/08/18 08:55 UTC NOAA

Station name not available
Aug 18, 2019 - 04:55 AM EDT / 2019.08.18 0855 UTC
Wind: from the SE (130 degrees) at 3 MPH (3 KT):0
Visibility: 7 mile(s):0
Sky conditions: clear
Precipitation last hour: 0.01 inches
Temperature: 66.0 F (18.9 C)
Dew Point: 66.0 F (18.9 C)
Relative Humidity: 100%
Pressure (altimeter): 29.82 in. Hg (1009 hPa)
ob: KFEP 180855Z AUTO 13003KT 7SM CLR 19/19 A2982 RMK AO2 P0001 60001 T01890189
cycle: 9

Station Type Date Time Source
KFEP TAF UTC NOAA

Error!

Example: see airport list